sensor_id;sensor_type;location;lat;lon;timestamp;temperature;humidity
11511;DHT22;5812;48.864;9.190;2023-03-11T00:00:33;3.30;99.90
11511;DHT22;5812;48.864;9.190;2023-03-11T00:03:01;3.30;99.90
11511;DHT22;5812;48.864;9.190;2023-03-11T00:05:35;3.20;99.90
11511;DHT22;5812;48.864;9.190;2023-03-11T00:08:01;3.20;99.90
11511;DHT22;5812;48.864;9.190;2023-03-11T00:10:28;3.10;99.90
11511;DHT22;5812;48.864;9.190;2023-03-11T00:12:54;3.20;99.90
11511;DHT22;5812;48.864;9.190;2023-03-11T00:15:20;3.20;99.90
11511;DHT22;5812;48.864;9.190;2023-03-11T00:17:49;3.00;99.90
11511;DHT22;5812;48.864;9.190;2023-03-11T00:20:19;3.00;99.90
11511;DHT22;5812;48.864;9.190;2023-03-11T00:22:46;2.90;99.90
11511;DHT22;5812;48.864;9.190;2023-03-11T00:25:12;2.80;99.90
11511;DHT22;5812;48.864;9.190;2023-03-11T00:27:38;2.80;99.90
11511;DHT22;5812;48.864;9.190;2023-03-11T00:30:04;2.80;99.90
11511;DHT22;5812;48.864;9.190;2023-03-11T00:32:30;2.80;99.90
11511;DHT22;5812;48.864;9.190;2023-03-11T00:34:56;2.80;99.90
11511;DHT22;5812;48.864;9.190;2023-03-11T00:37:21;2.80;99.90
11511;DHT22;5812;48.864;9.190;2023-03-11T00:39:47;2.80;99.90
11511;DHT22;5812;48.864;9.190;2023-03-11T00:42:12;2.80;99.90
11511;DHT22;5812;48.864;9.190;2023-03-11T00:44:38;2.80;99.90
11511;DHT22;5812;48.864;9.190;2023-03-11T00:47:04;2.80;99.90
11511;DHT22;5812;48.864;9.190;2023-03-11T00:49:29;2.80;99.90
11511;DHT22;5812;48.864;9.190;2023-03-11T00:51:55;2.80;99.90
11511;DHT22;5812;48.864;9.190;2023-03-11T00:54:21;2.80;99.90
11511;DHT22;5812;48.864;9.190;2023-03-11T00:56:46;2.70;99.90
11511;DHT22;5812;48.864;9.190;2023-03-11T00:59:12;2.80;99.90
11511;DHT22;5812;48.864;9.190;2023-03-11T01:01:37;2.70;99.90
11511;DHT22;5812;48.864;9.190;2023-03-11T01:04:03;2.80;99.90
11511;DHT22;5812;48.864;9.190;2023-03-11T01:06:29;2.70;99.90
11511;DHT22;5812;48.864;9.190;2023-03-11T01:08:54;2.60;99.90
11511;DHT22;5812;48.864;9.190;2023-03-11T01:11:20;2.60;99.90
11511;DHT22;5812;48.864;9.190;2023-03-11T01:13:46;2.50;99.90
11511;DHT22;5812;48.864;9.190;2023-03-11T01:16:11;2.30;99.90
11511;DHT22;5812;48.864;9.190;2023-03-11T01:18:37;2.30;99.90
11511;DHT22;5812;48.864;9.190;2023-03-11T01:21:03;2.30;99.90
11511;DHT22;5812;48.864;9.190;2023-03-11T01:23:28;2.30;99.90
11511;DHT22;5812;48.864;9.190;2023-03-11T01:25:54;2.30;99.90
11511;DHT22;5812;48.864;9.190;2023-03-11T01:28:19;2.30;99.90
11511;DHT22;5812;48.864;9.190;2023-03-11T01:30:45;2.20;99.90
11511;DHT22;5812;48.864;9.190;2023-03-11T01:33:18;2.20;99.90
11511;DHT22;5812;48.864;9.190;2023-03-11T01:35:44;2.20;99.90
11511;DHT22;5812;48.864;9.190;2023-03-11T01:38:11;2.20;99.90
11511;DHT22;5812;48.864;9.190;2023-03-11T01:40:42;2.20;99.90
11511;DHT22;5812;48.864;9.190;2023-03-11T01:43:38;2.20;99.90
11511;DHT22;5812;48.864;9.190;2023-03-11T01:46:15;2.30;99.90
11511;DHT22;5812;48.864;9.190;2023-03-11T01:48:50;2.30;99.90
11511;DHT22;5812;48.864;9.190;2023-03-11T01:51:36;2.30;99.90
11511;DHT22;5812;48.864;9.190;2023-03-11T01:54:11;2.20;99.90
11511;DHT22;5812;48.864;9.190;2023-03-11T01:56:38;2.20;99.90
11511;DHT22;5812;48.864;9.190;2023-03-11T01:59:07;2.10;99.90
11511;DHT22;5812;48.864;9.190;2023-03-11T02:01:34;2.10;99.90
11511;DHT22;5812;48.864;9.190;2023-03-11T02:04:02;2.00;99.90
11511;DHT22;5812;48.864;9.190;2023-03-11T02:06:27;2.00;99.90
11511;DHT22;5812;48.864;9.190;2023-03-11T02:08:54;2.00;99.90
11511;DHT22;5812;48.864;9.190;2023-03-11T02:11:26;1.90;99.90
11511;DHT22;5812;48.864;9.190;2023-03-11T02:13:55;1.90;99.90
11511;DHT22;5812;48.864;9.190;2023-03-11T02:16:21;1.80;99.90
11511;DHT22;5812;48.864;9.190;2023-03-11T02:18:47;1.80;99.90
11511;DHT22;5812;48.864;9.190;2023-03-11T02:21:26;1.70;99.90
11511;DHT22;5812;48.864;9.190;2023-03-11T02:24:14;1.70;99.90
11511;DHT22;5812;48.864;9.190;2023-03-11T02:27:00;1.70;99.90
11511;DHT22;5812;48.864;9.190;2023-03-11T02:29:28;1.60;99.90
11511;DHT22;5812;48.864;9.190;2023-03-11T02:31:55;1.60;99.90
11511;DHT22;5812;48.864;9.190;2023-03-11T02:34:29;1.60;99.90
11511;DHT22;5812;48.864;9.190;2023-03-11T02:36:56;1.50;99.90
11511;DHT22;5812;48.864;9.190;2023-03-11T02:41:54;1.40;99.90
11511;DHT22;5812;48.864;9.190;2023-03-11T02:44:20;1.30;99.90
11511;DHT22;5812;48.864;9.190;2023-03-11T02:46:46;1.30;99.90
11511;DHT22;5812;48.864;9.190;2023-03-11T02:49:13;1.30;99.90
11511;DHT22;5812;48.864;9.190;2023-03-11T02:51:39;1.20;99.90
11511;DHT22;5812;48.864;9.190;2023-03-11T02:54:05;1.00;99.90
11511;DHT22;5812;48.864;9.190;2023-03-11T02:56:31;1.00;99.90
11511;DHT22;5812;48.864;9.190;2023-03-11T02:58:56;1.00;99.90
11511;DHT22;5812;48.864;9.190;2023-03-11T03:01:22;0.90;99.90
11511;DHT22;5812;48.864;9.190;2023-03-11T03:03:48;0.80;99.90
11511;DHT22;5812;48.864;9.190;2023-03-11T03:06:14;0.80;99.90
11511;DHT22;5812;48.864;9.190;2023-03-11T03:08:40;0.70;99.90
11511;DHT22;5812;48.864;9.190;2023-03-11T03:11:06;0.70;99.90
11511;DHT22;5812;48.864;9.190;2023-03-11T03:13:31;0.60;99.90
11511;DHT22;5812;48.864;9.190;2023-03-11T03:15:57;0.60;99.90
11511;DHT22;5812;48.864;9.190;2023-03-11T03:18:23;0.50;99.90
11511;DHT22;5812;48.864;9.190;2023-03-11T03:20:50;0.50;99.90
11511;DHT22;5812;48.864;9.190;2023-03-11T03:23:16;0.50;99.90
11511;DHT22;5812;48.864;9.190;2023-03-11T03:25:43;0.50;99.90
11511;DHT22;5812;48.864;9.190;2023-03-11T03:28:12;0.40;99.90
11511;DHT22;5812;48.864;9.190;2023-03-11T03:30:39;0.40;99.90
11511;DHT22;5812;48.864;9.190;2023-03-11T03:33:05;0.40;99.90
11511;DHT22;5812;48.864;9.190;2023-03-11T03:35:32;0.30;99.90
11511;DHT22;5812;48.864;9.190;2023-03-11T03:37:59;0.30;99.90
11511;DHT22;5812;48.864;9.190;2023-03-11T03:40:25;0.20;99.90
11511;DHT22;5812;48.864;9.190;2023-03-11T03:42:51;0.20;99.90
11511;DHT22;5812;48.864;9.190;2023-03-11T03:45:17;0.20;99.90
11511;DHT22;5812;48.864;9.190;2023-03-11T03:47:42;0.20;99.90
11511;DHT22;5812;48.864;9.190;2023-03-11T03:50:10;0.30;99.90
11511;DHT22;5812;48.864;9.190;2023-03-11T03:52:36;0.20;99.90
11511;DHT22;5812;48.864;9.190;2023-03-11T03:55:03;0.20;99.90
11511;DHT22;5812;48.864;9.190;2023-03-11T03:57:28;0.20;99.90
11511;DHT22;5812;48.864;9.190;2023-03-11T03:59:54;0.20;99.90
11511;DHT22;5812;48.864;9.190;2023-03-11T04:02:20;0.10;99.90
11511;DHT22;5812;48.864;9.190;2023-03-11T04:04:45;0.10;99.90
11511;DHT22;5812;48.864;9.190;2023-03-11T04:07:11;0.20;99.90
11511;DHT22;5812;48.864;9.190;2023-03-11T04:09:39;0.20;99.90
11511;DHT22;5812;48.864;9.190;2023-03-11T04:12:05;0.20;99.90
11511;DHT22;5812;48.864;9.190;2023-03-11T04:14:31;0.20;99.90
11511;DHT22;5812;48.864;9.190;2023-03-11T04:16:56;0.20;99.90
11511;DHT22;5812;48.864;9.190;2023-03-11T04:19:23;0.20;99.90
11511;DHT22;5812;48.864;9.190;2023-03-11T04:21:49;0.20;99.90
11511;DHT22;5812;48.864;9.190;2023-03-11T04:24:16;0.10;99.90
11511;DHT22;5812;48.864;9.190;2023-03-11T04:26:42;0.10;99.90
11511;DHT22;5812;48.864;9.190;2023-03-11T04:29:08;0.10;99.90
11511;DHT22;5812;48.864;9.190;2023-03-11T04:31:33;0.00;99.90
11511;DHT22;5812;48.864;9.190;2023-03-11T04:33:59;0.00;99.90
11511;DHT22;5812;48.864;9.190;2023-03-11T04:36:25;-0.10;99.90
11511;DHT22;5812;48.864;9.190;2023-03-11T04:38:50;-0.10;99.90
11511;DHT22;5812;48.864;9.190;2023-03-11T04:41:16;-0.20;99.90
11511;DHT22;5812;48.864;9.190;2023-03-11T04:43:41;-0.20;99.90
11511;DHT22;5812;48.864;9.190;2023-03-11T04:46:07;-0.20;99.90
11511;DHT22;5812;48.864;9.190;2023-03-11T04:48:32;-0.20;99.90
11511;DHT22;5812;48.864;9.190;2023-03-11T04:50:58;-0.20;99.90
11511;DHT22;5812;48.864;9.190;2023-03-11T04:53:24;-0.20;99.90
11511;DHT22;5812;48.864;9.190;2023-03-11T04:55:49;-0.20;99.90
11511;DHT22;5812;48.864;9.190;2023-03-11T04:58:16;-0.20;99.90
11511;DHT22;5812;48.864;9.190;2023-03-11T05:00:42;-0.20;99.90
11511;DHT22;5812;48.864;9.190;2023-03-11T05:03:07;-0.20;99.90
11511;DHT22;5812;48.864;9.190;2023-03-11T05:05:33;-0.10;99.90
11511;DHT22;5812;48.864;9.190;2023-03-11T05:07:59;-0.10;99.90
11511;DHT22;5812;48.864;9.190;2023-03-11T05:10:25;-0.20;99.90
11511;DHT22;5812;48.864;9.190;2023-03-11T05:12:51;-0.20;99.90
11511;DHT22;5812;48.864;9.190;2023-03-11T05:15:17;-0.20;99.90
11511;DHT22;5812;48.864;9.190;2023-03-11T05:17:43;-0.10;99.90
11511;DHT22;5812;48.864;9.190;2023-03-11T05:20:10;-0.10;99.90
11511;DHT22;5812;48.864;9.190;2023-03-11T05:22:36;-0.20;99.90
11511;DHT22;5812;48.864;9.190;2023-03-11T05:25:01;-0.20;99.90
11511;DHT22;5812;48.864;9.190;2023-03-11T05:27:27;-0.20;99.90
11511;DHT22;5812;48.864;9.190;2023-03-11T05:29:53;-0.30;99.90
11511;DHT22;5812;48.864;9.190;2023-03-11T05:32:18;-0.30;99.90
11511;DHT22;5812;48.864;9.190;2023-03-11T05:34:44;-0.40;99.90
11511;DHT22;5812;48.864;9.190;2023-03-11T05:37:11;-0.30;99.90
11511;DHT22;5812;48.864;9.190;2023-03-11T05:39:36;-0.30;99.90
11511;DHT22;5812;48.864;9.190;2023-03-11T05:42:03;-0.30;99.90
11511;DHT22;5812;48.864;9.190;2023-03-11T05:44:30;-0.40;99.90
11511;DHT22;5812;48.864;9.190;2023-03-11T05:46:56;-0.40;99.90
11511;DHT22;5812;48.864;9.190;2023-03-11T05:49:21;-0.40;99.90
11511;DHT22;5812;48.864;9.190;2023-03-11T05:51:48;-0.40;99.90
11511;DHT22;5812;48.864;9.190;2023-03-11T05:54:14;-0.30;99.90
11511;DHT22;5812;48.864;9.190;2023-03-11T05:56:43;-0.40;99.90
11511;DHT22;5812;48.864;9.190;2023-03-11T05:59:10;-0.40;99.90
11511;DHT22;5812;48.864;9.190;2023-03-11T06:01:36;-0.50;99.90
11511;DHT22;5812;48.864;9.190;2023-03-11T06:04:03;-0.40;99.90
11511;DHT22;5812;48.864;9.190;2023-03-11T06:06:28;-0.40;99.90
11511;DHT22;5812;48.864;9.190;2023-03-11T06:08:54;-0.40;99.90
11511;DHT22;5812;48.864;9.190;2023-03-11T06:11:20;-0.40;99.90
11511;DHT22;5812;48.864;9.190;2023-03-11T06:13:51;-0.40;99.90
11511;DHT22;5812;48.864;9.190;2023-03-11T06:16:18;-0.40;99.90
11511;DHT22;5812;48.864;9.190;2023-03-11T06:18:43;-0.30;99.90
11511;DHT22;5812;48.864;9.190;2023-03-11T06:21:21;-0.40;99.90
11511;DHT22;5812;48.864;9.190;2023-03-11T06:23:47;-0.20;99.90
11511;DHT22;5812;48.864;9.190;2023-03-11T06:26:15;-0.20;99.90
11511;DHT22;5812;48.864;9.190;2023-03-11T06:28:42;-0.20;99.90
11511;DHT22;5812;48.864;9.190;2023-03-11T06:31:10;-0.10;99.90
11511;DHT22;5812;48.864;9.190;2023-03-11T06:33:36;0.00;99.90
11511;DHT22;5812;48.864;9.190;2023-03-11T06:36:03;0.10;99.90
11511;DHT22;5812;48.864;9.190;2023-03-11T06:38:29;0.00;99.90
11511;DHT22;5812;48.864;9.190;2023-03-11T06:40:58;0.00;99.90
11511;DHT22;5812;48.864;9.190;2023-03-11T06:43:24;0.00;99.90
11511;DHT22;5812;48.864;9.190;2023-03-11T06:45:50;0.10;99.90
11511;DHT22;5812;48.864;9.190;2023-03-11T06:48:15;0.20;99.90
11511;DHT22;5812;48.864;9.190;2023-03-11T06:50:41;0.20;99.90
11511;DHT22;5812;48.864;9.190;2023-03-11T06:53:06;0.20;99.90
11511;DHT22;5812;48.864;9.190;2023-03-11T06:55:33;0.40;99.90
11511;DHT22;5812;48.864;9.190;2023-03-11T06:57:59;0.50;99.90
11511;DHT22;5812;48.864;9.190;2023-03-11T07:00:24;0.50;99.90
11511;DHT22;5812;48.864;9.190;2023-03-11T07:02:50;0.70;99.90
11511;DHT22;5812;48.864;9.190;2023-03-11T07:05:16;0.70;99.90
11511;DHT22;5812;48.864;9.190;2023-03-11T07:07:42;0.80;99.90
11511;DHT22;5812;48.864;9.190;2023-03-11T07:10:08;0.70;99.90
11511;DHT22;5812;48.864;9.190;2023-03-11T07:12:34;0.90;99.90
11511;DHT22;5812;48.864;9.190;2023-03-11T07:15:00;0.90;99.90
11511;DHT22;5812;48.864;9.190;2023-03-11T07:17:26;1.10;99.90
11511;DHT22;5812;48.864;9.190;2023-03-11T07:19:52;1.30;99.90
11511;DHT22;5812;48.864;9.190;2023-03-11T07:22:18;1.40;99.90
11511;DHT22;5812;48.864;9.190;2023-03-11T07:24:45;1.50;99.90
11511;DHT22;5812;48.864;9.190;2023-03-11T07:27:11;1.60;99.90
11511;DHT22;5812;48.864;9.190;2023-03-11T07:29:36;1.50;99.90
11511;DHT22;5812;48.864;9.190;2023-03-11T07:32:02;1.60;99.90
11511;DHT22;5812;48.864;9.190;2023-03-11T07:34:28;1.70;99.90
11511;DHT22;5812;48.864;9.190;2023-03-11T07:36:53;1.80;99.90
11511;DHT22;5812;48.864;9.190;2023-03-11T07:39:19;1.90;99.90
11511;DHT22;5812;48.864;9.190;2023-03-11T07:41:45;1.90;99.90
11511;DHT22;5812;48.864;9.190;2023-03-11T07:44:12;2.10;99.90
11511;DHT22;5812;48.864;9.190;2023-03-11T07:46:38;2.10;99.90
11511;DHT22;5812;48.864;9.190;2023-03-11T07:49:04;2.30;99.90
11511;DHT22;5812;48.864;9.190;2023-03-11T07:51:32;2.30;99.90
11511;DHT22;5812;48.864;9.190;2023-03-11T07:53:59;2.40;99.90
11511;DHT22;5812;48.864;9.190;2023-03-11T07:56:28;2.30;99.90
11511;DHT22;5812;48.864;9.190;2023-03-11T07:58:54;2.50;99.90
11511;DHT22;5812;48.864;9.190;2023-03-11T08:01:22;2.50;99.90
11511;DHT22;5812;48.864;9.190;2023-03-11T08:03:49;2.40;99.90
11511;DHT22;5812;48.864;9.190;2023-03-11T08:06:21;2.60;99.90
11511;DHT22;5812;48.864;9.190;2023-03-11T08:08:47;2.80;99.90
11511;DHT22;5812;48.864;9.190;2023-03-11T08:11:14;2.80;99.90
11511;DHT22;5812;48.864;9.190;2023-03-11T08:13:41;2.80;99.90
11511;DHT22;5812;48.864;9.190;2023-03-11T08:16:09;3.10;99.90
11511;DHT22;5812;48.864;9.190;2023-03-11T08:18:34;2.90;99.90
11511;DHT22;5812;48.864;9.190;2023-03-11T08:21:04;3.10;99.90
11511;DHT22;5812;48.864;9.190;2023-03-11T08:23:30;3.40;1.00
11511;DHT22;5812;48.864;9.190;2023-03-11T08:25:56;2.90;1.00
11511;DHT22;5812;48.864;9.190;2023-03-11T08:28:21;2.80;1.00
11511;DHT22;5812;48.864;9.190;2023-03-11T08:30:47;3.00;1.00
11511;DHT22;5812;48.864;9.190;2023-03-11T08:33:12;3.30;1.00
11511;DHT22;5812;48.864;9.190;2023-03-11T08:35:38;3.50;1.00
11511;DHT22;5812;48.864;9.190;2023-03-11T08:38:03;3.60;1.00
11511;DHT22;5812;48.864;9.190;2023-03-11T08:40:29;3.90;1.00
11511;DHT22;5812;48.864;9.190;2023-03-11T08:42:55;3.40;1.00
11511;DHT22;5812;48.864;9.190;2023-03-11T08:45:21;3.50;1.00
11511;DHT22;5812;48.864;9.190;2023-03-11T08:47:46;3.60;1.00
11511;DHT22;5812;48.864;9.190;2023-03-11T08:50:15;4.00;1.00
11511;DHT22;5812;48.864;9.190;2023-03-11T08:52:41;3.90;1.00
11511;DHT22;5812;48.864;9.190;2023-03-11T08:55:08;4.10;1.00
11511;DHT22;5812;48.864;9.190;2023-03-11T08:57:35;3.80;1.00
11511;DHT22;5812;48.864;9.190;2023-03-11T09:00:03;4.10;1.00
11511;DHT22;5812;48.864;9.190;2023-03-11T09:02:29;4.30;99.90
11511;DHT22;5812;48.864;9.190;2023-03-11T09:04:55;4.40;99.90
11511;DHT22;5812;48.864;9.190;2023-03-11T09:07:20;4.00;99.90
11511;DHT22;5812;48.864;9.190;2023-03-11T09:09:46;4.20;99.90
11511;DHT22;5812;48.864;9.190;2023-03-11T09:12:11;4.20;99.90
11511;DHT22;5812;48.864;9.190;2023-03-11T09:14:39;4.50;99.90
11511;DHT22;5812;48.864;9.190;2023-03-11T09:17:06;4.50;99.90
11511;DHT22;5812;48.864;9.190;2023-03-11T09:19:32;4.50;99.90
11511;DHT22;5812;48.864;9.190;2023-03-11T09:22:01;4.70;99.90
11511;DHT22;5812;48.864;9.190;2023-03-11T09:24:28;4.20;99.90
11511;DHT22;5812;48.864;9.190;2023-03-11T09:26:54;4.30;99.90
11511;DHT22;5812;48.864;9.190;2023-03-11T09:29:20;4.50;99.90
11511;DHT22;5812;48.864;9.190;2023-03-11T09:31:45;4.60;99.90
11511;DHT22;5812;48.864;9.190;2023-03-11T09:34:12;4.80;99.90
11511;DHT22;5812;48.864;9.190;2023-03-11T09:36:40;4.90;99.90
11511;DHT22;5812;48.864;9.190;2023-03-11T09:39:06;5.20;99.90
11511;DHT22;5812;48.864;9.190;2023-03-11T09:41:53;6.10;99.90
11511;DHT22;5812;48.864;9.190;2023-03-11T09:44:32;7.40;99.90
11511;DHT22;5812;48.864;9.190;2023-03-11T09:52:32;6.40;99.90
11511;DHT22;5812;48.864;9.190;2023-03-11T09:55:03;6.10;99.90
11511;DHT22;5812;48.864;9.190;2023-03-11T09:57:33;6.50;99.90
11511;DHT22;5812;48.864;9.190;2023-03-11T10:00:03;6.10;99.90
11511;DHT22;5812;48.864;9.190;2023-03-11T10:02:29;5.90;99.90
11511;DHT22;5812;48.864;9.190;2023-03-11T10:05:02;4.60;99.90
11511;DHT22;5812;48.864;9.190;2023-03-11T10:07:35;4.20;99.90
11511;DHT22;5812;48.864;9.190;2023-03-11T10:10:02;4.20;99.90
11511;DHT22;5812;48.864;9.190;2023-03-11T10:12:55;4.00;99.90
11511;DHT22;5812;48.864;9.190;2023-03-11T10:15:35;4.90;99.90
11511;DHT22;5812;48.864;9.190;2023-03-11T10:20:41;6.40;99.90
11511;DHT22;5812;48.864;9.190;2023-03-11T10:26:12;6.90;99.90
11511;DHT22;5812;48.864;9.190;2023-03-11T10:28:56;5.30;99.90
11511;DHT22;5812;48.864;9.190;2023-03-11T10:31:29;5.40;99.90
11511;DHT22;5812;48.864;9.190;2023-03-11T10:34:01;6.00;99.90
11511;DHT22;5812;48.864;9.190;2023-03-11T10:39:16;7.00;99.90
11511;DHT22;5812;48.864;9.190;2023-03-11T10:41:45;7.20;99.90
11511;DHT22;5812;48.864;9.190;2023-03-11T10:44:19;7.50;99.90
11511;DHT22;5812;48.864;9.190;2023-03-11T10:46:48;7.70;99.90
11511;DHT22;5812;48.864;9.190;2023-03-11T10:49:15;7.70;99.90
11511;DHT22;5812;48.864;9.190;2023-03-11T10:51:44;7.70;99.90
11511;DHT22;5812;48.864;9.190;2023-03-11T10:57:23;7.20;99.90
11511;DHT22;5812;48.864;9.190;2023-03-11T10:59:56;6.80;99.90
11511;DHT22;5812;48.864;9.190;2023-03-11T11:05:24;7.00;99.90
11511;DHT22;5812;48.864;9.190;2023-03-11T11:08:05;5.80;99.90
11511;DHT22;5812;48.864;9.190;2023-03-11T11:10:32;5.50;99.90
11511;DHT22;5812;48.864;9.190;2023-03-11T11:13:19;5.50;99.90
11511;DHT22;5812;48.864;9.190;2023-03-11T11:16:15;5.40;99.90
11511;DHT22;5812;48.864;9.190;2023-03-11T11:18:47;5.60;99.90
11511;DHT22;5812;48.864;9.190;2023-03-11T11:21:16;6.10;99.90
11511;DHT22;5812;48.864;9.190;2023-03-11T11:26:27;6.30;99.90
11511;DHT22;5812;48.864;9.190;2023-03-11T11:31:45;6.70;99.90
11511;DHT22;5812;48.864;9.190;2023-03-11T11:36:45;7.00;99.90
11511;DHT22;5812;48.864;9.190;2023-03-11T11:39:15;7.90;99.90
11511;DHT22;5812;48.864;9.190;2023-03-11T11:41:43;7.40;99.90
11511;DHT22;5812;48.864;9.190;2023-03-11T11:44:14;8.70;99.90
11511;DHT22;5812;48.864;9.190;2023-03-11T11:46:48;8.50;99.90
11511;DHT22;5812;48.864;9.190;2023-03-11T11:49:20;8.00;99.90
11511;DHT22;5812;48.864;9.190;2023-03-11T11:52:11;7.50;99.90
11511;DHT22;5812;48.864;9.190;2023-03-11T11:57:17;8.40;99.90
11511;DHT22;5812;48.864;9.190;2023-03-11T11:59:44;7.70;99.90
11511;DHT22;5812;48.864;9.190;2023-03-11T12:02:26;8.90;99.90
11511;DHT22;5812;48.864;9.190;2023-03-11T12:07:56;10.00;99.90
11511;DHT22;5812;48.864;9.190;2023-03-11T12:15:40;9.80;99.90
11511;DHT22;5812;48.864;9.190;2023-03-11T12:18:25;10.40;99.90
11511;DHT22;5812;48.864;9.190;2023-03-11T12:20:54;10.20;99.90
11511;DHT22;5812;48.864;9.190;2023-03-11T12:23:56;10.50;99.90
11511;DHT22;5812;48.864;9.190;2023-03-11T12:26:27;8.60;99.90
11511;DHT22;5812;48.864;9.190;2023-03-11T12:29:10;10.40;99.90
11511;DHT22;5812;48.864;9.190;2023-03-11T12:31:38;11.00;99.90
11511;DHT22;5812;48.864;9.190;2023-03-11T12:34:15;11.30;99.90
11511;DHT22;5812;48.864;9.190;2023-03-11T12:36:44;13.00;99.90
11511;DHT22;5812;48.864;9.190;2023-03-11T12:39:40;12.60;99.90
11511;DHT22;5812;48.864;9.190;2023-03-11T12:42:22;11.90;99.90
11511;DHT22;5812;48.864;9.190;2023-03-11T12:44:50;12.60;99.90
11511;DHT22;5812;48.864;9.190;2023-03-11T12:47:18;11.90;99.90
11511;DHT22;5812;48.864;9.190;2023-03-11T12:49:49;12.50;99.90
11511;DHT22;5812;48.864;9.190;2023-03-11T12:52:19;13.20;99.90
11511;DHT22;5812;48.864;9.190;2023-03-11T13:08:10;12.70;99.90
11511;DHT22;5812;48.864;9.190;2023-03-11T13:10:42;12.80;99.90
11511;DHT22;5812;48.864;9.190;2023-03-11T13:13:41;13.20;99.90
11511;DHT22;5812;48.864;9.190;2023-03-11T13:18:43;12.50;99.90
11511;DHT22;5812;48.864;9.190;2023-03-11T13:27:04;12.10;99.90
11511;DHT22;5812;48.864;9.190;2023-03-11T13:38:08;12.30;99.90
11511;DHT22;5812;48.864;9.190;2023-03-11T13:40:36;13.70;99.90
11511;DHT22;5812;48.864;9.190;2023-03-11T13:43:07;13.20;99.90
11511;DHT22;5812;48.864;9.190;2023-03-11T13:45:35;12.70;99.90
11511;DHT22;5812;48.864;9.190;2023-03-11T13:48:16;12.40;99.90
11511;DHT22;5812;48.864;9.190;2023-03-11T13:53:39;12.90;99.90
11511;DHT22;5812;48.864;9.190;2023-03-11T13:56:16;12.80;99.90
11511;DHT22;5812;48.864;9.190;2023-03-11T13:58:42;11.60;99.90
11511;DHT22;5812;48.864;9.190;2023-03-11T14:01:14;11.20;99.90
11511;DHT22;5812;48.864;9.190;2023-03-11T14:03:42;9.70;99.90
11511;DHT22;5812;48.864;9.190;2023-03-11T14:06:12;9.90;99.90
11511;DHT22;5812;48.864;9.190;2023-03-11T14:08:39;9.90;99.90
11511;DHT22;5812;48.864;9.190;2023-03-11T14:13:44;10.10;99.90
11511;DHT22;5812;48.864;9.190;2023-03-11T14:16:16;9.90;99.90
11511;DHT22;5812;48.864;9.190;2023-03-11T14:18:45;9.40;99.90
11511;DHT22;5812;48.864;9.190;2023-03-11T14:21:20;9.10;99.90
11511;DHT22;5812;48.864;9.190;2023-03-11T14:23:52;10.00;99.90
11511;DHT22;5812;48.864;9.190;2023-03-11T14:26:20;10.10;99.90
11511;DHT22;5812;48.864;9.190;2023-03-11T14:28:50;9.10;99.90
11511;DHT22;5812;48.864;9.190;2023-03-11T14:31:31;8.80;99.90
11511;DHT22;5812;48.864;9.190;2023-03-11T14:36:48;8.40;99.90
11511;DHT22;5812;48.864;9.190;2023-03-11T14:39:34;8.00;99.90
11511;DHT22;5812;48.864;9.190;2023-03-11T14:45:22;7.70;99.90
11511;DHT22;5812;48.864;9.190;2023-03-11T14:47:51;7.70;99.90
11511;DHT22;5812;48.864;9.190;2023-03-11T14:50:20;8.00;99.90
11511;DHT22;5812;48.864;9.190;2023-03-11T14:52:58;8.00;99.90
11511;DHT22;5812;48.864;9.190;2023-03-11T14:55:31;7.80;99.90
11511;DHT22;5812;48.864;9.190;2023-03-11T14:58:12;7.20;99.90
11511;DHT22;5812;48.864;9.190;2023-03-11T15:00:56;6.90;99.90
11511;DHT22;5812;48.864;9.190;2023-03-11T15:03:29;7.20;99.90
11511;DHT22;5812;48.864;9.190;2023-03-11T15:05:59;7.20;99.90
11511;DHT22;5812;48.864;9.190;2023-03-11T15:08:30;7.40;99.90
11511;DHT22;5812;48.864;9.190;2023-03-11T15:13:33;7.60;99.90
11511;DHT22;5812;48.864;9.190;2023-03-11T15:16:05;7.70;99.90
11511;DHT22;5812;48.864;9.190;2023-03-11T15:18:34;7.30;99.90
11511;DHT22;5812;48.864;9.190;2023-03-11T15:24:02;7.10;99.90
11511;DHT22;5812;48.864;9.190;2023-03-11T15:26:32;7.00;99.90
11511;DHT22;5812;48.864;9.190;2023-03-11T15:29:03;6.90;99.90
11511;DHT22;5812;48.864;9.190;2023-03-11T15:31:38;6.80;99.90
11511;DHT22;5812;48.864;9.190;2023-03-11T15:34:25;6.90;99.90
11511;DHT22;5812;48.864;9.190;2023-03-11T15:44:40;7.00;99.90
11511;DHT22;5812;48.864;9.190;2023-03-11T15:47:17;7.00;99.90
11511;DHT22;5812;48.864;9.190;2023-03-11T15:49:43;6.90;99.90
11511;DHT22;5812;48.864;9.190;2023-03-11T15:52:09;6.70;99.90
11511;DHT22;5812;48.864;9.190;2023-03-11T15:54:35;6.50;99.90
11511;DHT22;5812;48.864;9.190;2023-03-11T15:57:04;6.20;99.90
11511;DHT22;5812;48.864;9.190;2023-03-11T15:59:31;6.20;99.90
11511;DHT22;5812;48.864;9.190;2023-03-11T16:01:57;6.10;99.90
11511;DHT22;5812;48.864;9.190;2023-03-11T16:04:24;6.00;99.90
11511;DHT22;5812;48.864;9.190;2023-03-11T16:06:50;5.90;99.90
11511;DHT22;5812;48.864;9.190;2023-03-11T16:09:16;5.90;99.90
11511;DHT22;5812;48.864;9.190;2023-03-11T16:11:42;5.90;99.90
11511;DHT22;5812;48.864;9.190;2023-03-11T16:14:19;5.80;99.90
11511;DHT22;5812;48.864;9.190;2023-03-11T16:16:45;5.60;99.90
11511;DHT22;5812;48.864;9.190;2023-03-11T16:19:11;5.70;99.90
11511;DHT22;5812;48.864;9.190;2023-03-11T16:21:42;5.70;99.90
11511;DHT22;5812;48.864;9.190;2023-03-11T16:24:17;5.70;99.90
11511;DHT22;5812;48.864;9.190;2023-03-11T16:26:43;5.60;99.90
11511;DHT22;5812;48.864;9.190;2023-03-11T16:29:09;5.50;99.90
11511;DHT22;5812;48.864;9.190;2023-03-11T16:31:35;5.50;99.90
11511;DHT22;5812;48.864;9.190;2023-03-11T16:34:01;5.40;99.90
11511;DHT22;5812;48.864;9.190;2023-03-11T16:36:26;5.30;99.90
11511;DHT22;5812;48.864;9.190;2023-03-11T16:38:52;5.30;99.90
11511;DHT22;5812;48.864;9.190;2023-03-11T16:41:17;5.30;99.90
11511;DHT22;5812;48.864;9.190;2023-03-11T16:43:43;5.30;99.90
11511;DHT22;5812;48.864;9.190;2023-03-11T16:46:09;5.20;99.90
11511;DHT22;5812;48.864;9.190;2023-03-11T16:48:35;5.10;99.90
11511;DHT22;5812;48.864;9.190;2023-03-11T16:51:01;5.10;99.90
11511;DHT22;5812;48.864;9.190;2023-03-11T16:53:26;5.00;99.90
11511;DHT22;5812;48.864;9.190;2023-03-11T16:55:52;5.00;99.90
11511;DHT22;5812;48.864;9.190;2023-03-11T16:58:18;5.00;99.90
11511;DHT22;5812;48.864;9.190;2023-03-11T17:00:45;4.80;99.90
11511;DHT22;5812;48.864;9.190;2023-03-11T17:03:11;4.80;99.90
11511;DHT22;5812;48.864;9.190;2023-03-11T17:05:37;4.80;99.90
11511;DHT22;5812;48.864;9.190;2023-03-11T17:08:03;4.70;99.90
11511;DHT22;5812;48.864;9.190;2023-03-11T17:10:43;4.70;99.90
11511;DHT22;5812;48.864;9.190;2023-03-11T17:13:13;4.70;99.90
11511;DHT22;5812;48.864;9.190;2023-03-11T17:15:39;4.60;99.90
11511;DHT22;5812;48.864;9.190;2023-03-11T17:18:09;4.50;99.90
11511;DHT22;5812;48.864;9.190;2023-03-11T17:20:38;4.50;99.90
11511;DHT22;5812;48.864;9.190;2023-03-11T17:23:03;4.40;99.90
11511;DHT22;5812;48.864;9.190;2023-03-11T17:25:29;4.40;99.90
11511;DHT22;5812;48.864;9.190;2023-03-11T17:27:54;4.30;99.90
11511;DHT22;5812;48.864;9.190;2023-03-11T17:30:20;4.30;99.90
11511;DHT22;5812;48.864;9.190;2023-03-11T17:32:46;4.20;99.90
11511;DHT22;5812;48.864;9.190;2023-03-11T17:35:11;4.00;99.90
11511;DHT22;5812;48.864;9.190;2023-03-11T17:37:37;3.90;99.90
11511;DHT22;5812;48.864;9.190;2023-03-11T17:40:03;3.80;99.90
11511;DHT22;5812;48.864;9.190;2023-03-11T17:42:28;3.80;99.90
11511;DHT22;5812;48.864;9.190;2023-03-11T17:44:55;3.60;99.90